Time;durP1;ratioP1;P1;durP2;ratioP2;P2;SDS_P1;SDS_P2;PMS_P1;PMS_P2;Temp;Humidity;BMP_temperature;BMP_pressure;BME280_temperature;BME280_humidity;BME280_pressure;Samples;Min_cycle;Max_cycle;Signal;HPM_P1;HPM_P2
2022/09/14 00:02:05;;;;;;;;;;;;;;;17.53;86.83;100336.38;5095414;28;19927;-79
2022/09/14 00:04:31;;;;;;;;;;;;;;;17.53;86.90;100333.75;5095035;28;19920;-79
2022/09/14 00:06:56;;;;;;;;;;;;;;;17.54;86.70;100330.16;5100191;28;19959;-79
2022/09/14 00:09:22;;;;;;;;;;;;;;;17.56;86.79;100330.94;5095258;28;19927;-79
2022/09/14 00:11:47;;;;;;;;;;;;;;;17.58;86.65;100318.56;5075598;28;19931;-79
2022/09/14 00:14:13;;;;;;;;;;;;;;;17.57;86.83;100311.59;5094236;28;19920;-79
2022/09/14 00:16:42;;;;;;;;;;;;;;;17.53;87.06;100310.94;5093793;28;20410;-78
2022/09/14 00:19:20;;;;;;;;;;;;;;;17.54;87.23;100307.38;5092211;28;19920;-79
2022/09/14 00:21:49;;;;;;;;;;;;;;;17.53;87.43;100308.31;5091964;28;19939;-79
2022/09/14 00:24:16;;;;;;;;;;;;;;;17.57;87.27;100303.72;5094479;28;20176;-79
2022/09/14 00:26:41;;;;;;;;;;;;;;;17.56;87.25;100295.00;5092486;28;19924;-79
2022/09/14 00:29:07;;;;;;;;;;;;;;;17.53;87.51;100294.34;5090484;28;20435;-79
2022/09/14 00:31:34;;;;;;;;;;;;;;;17.57;87.54;100290.59;5073138;28;19920;-79
2022/09/14 00:34:00;;;;;;;;;;;;;;;17.57;87.58;100301.94;5089335;28;19928;-79
2022/09/14 00:36:27;;;;;;;;;;;;;;;17.54;87.75;100293.38;5085574;28;19920;-78
2022/09/14 00:38:56;;;;;;;;;;;;;;;17.53;87.65;100294.34;5090293;28;19920;-79
2022/09/14 00:41:23;;;;;;;;;;;;;;;17.58;87.62;100287.03;5089709;28;20373;-79
2022/09/14 00:44:09;;;;;;;;;;;;;;;17.61;87.76;100279.03;5094758;28;19916;-79
2022/09/14 00:46:35;;;;;;;;;;;;;;;17.59;87.75;100279.09;5048473;28;19953;-79
2022/09/14 00:49:01;;;;;;;;;;;;;;;17.57;88.14;100267.81;5089965;28;20407;-79
2022/09/14 00:51:28;;;;;;;;;;;;;;;17.60;88.07;100264.19;5095415;28;19947;-79
2022/09/14 00:53:54;;;;;;;;;;;;;;;17.57;88.16;100256.44;5090357;28;20002;-79
2022/09/14 00:56:19;;;;;;;;;;;;;;;17.57;88.15;100248.56;5089074;28;20003;-79
2022/09/14 00:58:46;;;;;;;;;;;;;;;17.55;88.05;100246.06;5091840;28;20391;-79
2022/09/14 01:01:12;;;;;;;;;;;;;;;17.55;88.11;100248.66;5089916;28;19923;-79
2022/09/14 01:03:37;;;;;;;;;;;;;;;17.54;88.11;100248.75;5089171;28;19920;-79
2022/09/14 01:06:13;;;;;;;;;;;;;;;17.53;88.26;100242.63;5088459;28;19920;-79
2022/09/14 01:08:44;;;;;;;;;;;;;;;17.56;87.93;100244.28;5094664;28;19924;-79
2022/09/14 01:11:09;;;;;;;;;;;;;;;17.56;88.01;100246.91;5091068;28;19924;-79
2022/09/14 01:13:46;;;;;;;;;;;;;;;17.54;88.27;100246.97;5089118;28;20362;-79
2022/09/14 01:16:11;;;;;;;;;;;;;;;17.54;88.03;100249.59;5083768;28;20342;-79
2022/09/14 01:18:41;;;;;;;;;;;;;;;17.54;88.17;100254.84;5087231;28;20010;-79
2022/09/14 01:21:22;;;;;;;;;;;;;;;17.53;88.10;100261.03;5089289;28;20392;-79
2022/09/14 01:23:50;;;;;;;;;;;;;;;17.59;88.13;100254.59;5091345;28;20481;-79
2022/09/14 01:26:54;;;;;;;;;;;;;;;17.54;88.21;100249.59;5084048;28;19928;-79
2022/09/14 01:29:26;;;;;;;;;;;;;;;17.51;88.38;100255.03;5015572;28;19933;-79
2022/09/14 01:31:55;;;;;;;;;;;;;;;17.50;88.53;100255.13;4990270;28;19918;-79
2022/09/14 01:34:27;;;;;;;;;;;;;;;17.51;88.55;100262.06;5044033;28;19959;-79
2022/09/14 01:36:56;;;;;;;;;;;;;;;17.51;88.45;100265.53;5079658;28;19926;-79
2022/09/14 01:39:22;;;;;;;;;;;;;;;17.54;88.49;100264.50;5089121;28;20368;-79
2022/09/14 01:41:48;;;;;;;;;;;;;;;17.49;88.89;100261.31;5090083;28;19969;-79
2022/09/14 01:44:30;;;;;;;;;;;;;;;17.51;88.92;100268.16;5086877;28;19923;-79
2022/09/14 01:46:58;;;;;;;;;;;;;;;17.52;89.22;100263.75;5087412;28;19939;-79
2022/09/14 01:49:31;;;;;;;;;;;;;;;17.51;89.13;100264.69;5088726;28;19920;-79
2022/09/14 01:52:03;;;;;;;;;;;;;;;17.50;88.86;100263.81;5088814;28;20474;-79
2022/09/14 01:54:34;;;;;;;;;;;;;;;17.53;88.73;100262.84;5090774;28;19999;-79
2022/09/14 01:57:13;;;;;;;;;;;;;;;17.51;88.52;100257.66;5088163;28;19989;-79
2022/09/14 01:59:42;;;;;;;;;;;;;;;17.52;88.73;100242.75;5085984;28;19984;-79
2022/09/14 02:02:10;;;;;;;;;;;;;;;17.55;88.35;100240.78;5088589;28;19920;-79
2022/09/14 02:04:47;;;;;;;;;;;;;;;17.55;88.39;100240.78;5090012;28;19920;-79
2022/09/14 02:07:13;;;;;;;;;;;;;;;17.56;88.30;100236.41;5086098;28;20003;-79
2022/09/14 02:09:38;;;;;;;;;;;;;;;17.54;88.42;100240.88;5089783;28;19928;-79
2022/09/14 02:12:04;;;;;;;;;;;;;;;17.52;88.42;100229.63;5079873;28;19921;-79
2022/09/14 02:14:29;;;;;;;;;;;;;;;17.52;88.60;100232.25;5068002;28;20017;-79
2022/09/14 02:16:55;;;;;;;;;;;;;;;17.49;88.91;100230.66;5090222;28;20391;-79
2022/09/14 02:19:20;;;;;;;;;;;;;;;17.50;88.64;100218.38;5089728;28;19920;-79
2022/09/14 02:21:45;;;;;;;;;;;;;;;17.49;88.86;100220.13;5088374;28;20390;-79
2022/09/14 02:24:11;;;;;;;;;;;;;;;17.49;88.68;100212.25;5089581;28;19928;-79
2022/09/14 02:26:38;;;;;;;;;;;;;;;17.50;88.72;100216.56;5069868;28;20466;-79
2022/09/14 02:29:04;;;;;;;;;;;;;;;17.50;88.63;100210.50;5094267;28;20010;-79
2022/09/14 02:31:48;;;;;;;;;;;;;;;17.51;88.66;100212.16;5076760;28;20335;-79
2022/09/14 02:34:16;;;;;;;;;;;;;;;17.51;88.69;100214.78;5085064;28;20436;-78
2022/09/14 02:37:00;;;;;;;;;;;;;;;17.50;88.68;100202.59;5087047;28;20403;-79
2022/09/14 02:39:30;;;;;;;;;;;;;;;17.48;88.76;100202.69;5089508;28;19924;-79
2022/09/14 02:41:59;;;;;;;;;;;;;;;17.50;88.45;100192.09;5088596;28;19920;-79
2022/09/14 02:44:30;;;;;;;;;;;;;;;17.50;88.41;100190.28;5085333;28;19963;-79
2022/09/14 02:46:55;;;;;;;;;;;;;;;17.52;88.43;100198.09;5086260;28;19916;-79
2022/09/14 02:49:21;;;;;;;;;;;;;;;17.50;88.47;100184.22;5089711;28;19927;-79
2022/09/14 02:51:57;;;;;;;;;;;;;;;17.52;88.45;100182.34;5071705;28;20456;-79
2022/09/14 02:54:32;;;;;;;;;;;;;;;17.51;88.38;100180.66;5087344;28;19930;-79
2022/09/14 02:57:02;;;;;;;;;;;;;;;17.51;88.52;100172.75;5082662;28;19920;-79
2022/09/14 02:59:27;;;;;;;;;;;;;;;17.50;88.37;100171.09;5083411;28;19920;-79
2022/09/14 03:01:53;;;;;;;;;;;;;;;17.50;88.29;100171.91;5085975;28;19916;-79
2022/09/14 03:04:18;;;;;;;;;;;;;;;17.50;88.56;100161.41;5092552;28;19970;-79
2022/09/14 03:06:43;;;;;;;;;;;;;;;17.48;88.80;100151.94;5085899;28;19942;-79
2022/09/14 03:09:09;;;;;;;;;;;;;;;17.48;88.73;100157.19;5069729;28;19931;-79
2022/09/14 03:11:34;;;;;;;;;;;;;;;17.47;88.36;100158.16;5087720;28;19920;-79
2022/09/14 03:13:59;;;;;;;;;;;;;;;17.48;88.46;100163.28;5088955;28;19924;-79
2022/09/14 03:16:25;;;;;;;;;;;;;;;17.49;88.35;100146.63;5091249;28;19916;-79
2022/09/14 03:18:51;;;;;;;;;;;;;;;17.47;88.38;100153.72;5090625;28;20603;-79
2022/09/14 03:21:16;;;;;;;;;;;;;;;17.47;88.27;100153.72;5086330;28;19920;-79
2022/09/14 03:23:43;;;;;;;;;;;;;;;17.48;88.37;100149.31;5090158;28;19943;-79
2022/09/14 03:26:10;;;;;;;;;;;;;;;17.48;88.52;100144.06;5087933;28;19935;-79
2022/09/14 03:28:35;;;;;;;;;;;;;;;17.48;88.53;100151.94;5087327;28;20376;-79
2022/09/14 03:31:01;;;;;;;;;;;;;;;17.46;88.36;100146.78;5082451;28;19927;-78
2022/09/14 03:33:26;;;;;;;;;;;;;;;17.48;88.26;100134.41;5085061;28;19924;-79
2022/09/14 03:35:52;;;;;;;;;;;;;;;17.47;88.40;100135.34;5083898;28;19920;-79
2022/09/14 03:38:18;;;;;;;;;;;;;;;17.44;88.78;100137.31;5088071;28;19926;-79
2022/09/14 03:40:43;;;;;;;;;;;;;;;17.45;88.43;100142.47;5088205;28;20432;-79
2022/09/14 03:43:11;;;;;;;;;;;;;;;17.46;88.63;100138.91;5086407;28;19958;-79
2022/09/14 03:45:36;;;;;;;;;;;;;;;17.48;88.40;100142.28;5087851;28;20031;-79
2022/09/14 03:48:02;;;;;;;;;;;;;;;17.47;88.72;100137.97;5066457;28;20416;-79
2022/09/14 03:50:27;;;;;;;;;;;;;;;17.49;88.41;100133.47;5089273;28;19924;-79
2022/09/14 03:52:52;;;;;;;;;;;;;;;17.48;88.63;100134.41;5093314;28;19963;-79
2022/09/14 03:55:18;;;;;;;;;;;;;;;17.46;88.65;100136.28;5092496;28;19916;-79
2022/09/14 03:57:43;;;;;;;;;;;;;;;17.47;88.79;100142.41;5088143;28;19920;-79
2022/09/14 04:00:10;;;;;;;;;;;;;;;17.46;88.61;100125.78;5070275;28;20701;-79
2022/09/14 04:02:35;;;;;;;;;;;;;;;17.47;88.51;100137.13;5088650;28;19977;-79
2022/09/14 04:05:00;;;;;;;;;;;;;;;17.48;88.73;100136.19;5088941;28;19923;-79
2022/09/14 04:07:26;;;;;;;;;;;;;;;17.48;88.83;100133.56;5091066;28;19960;-79
2022/09/14 04:09:51;;;;;;;;;;;;;;;17.47;88.86;100135.34;5091503;28;19969;-79
2022/09/14 04:12:16;;;;;;;;;;;;;;;17.45;88.78;100124.09;5094598;28;19920;-79
2022/09/14 04:14:42;;;;;;;;;;;;;;;17.47;88.81;100129.25;5069603;28;19916;-79
2022/09/14 04:17:07;;;;;;;;;;;;;;;17.43;89.02;100133.84;5072788;28;20014;-79
2022/09/14 04:19:33;;;;;;;;;;;;;;;17.46;88.73;100122.31;5091774;28;19917;-79
2022/09/14 04:21:59;;;;;;;;;;;;;;;17.44;88.83;100117.13;5090110;28;19935;-79
2022/09/14 04:24:24;;;;;;;;;;;;;;;17.45;88.62;100112.72;5089650;28;19927;-79
2022/09/14 04:26:50;;;;;;;;;;;;;;;17.44;88.70;100109.25;5090720;28;19926;-78
2022/09/14 04:29:15;;;;;;;;;;;;;;;17.44;88.69;100113.69;5092082;28;20291;-79
2022/09/14 04:31:40;;;;;;;;;;;;;;;17.45;88.69;100110.09;5088124;28;19920;-79
2022/09/14 04:34:06;;;;;;;;;;;;;;;17.44;88.74;100109.25;5092210;28;19918;-79
2022/09/14 04:36:31;;;;;;;;;;;;;;;17.46;88.68;100112.66;5090712;28;20018;-78
2022/09/14 04:39:01;;;;;;;;;;;;;;;17.44;88.83;100109.25;5090414;28;19920;-79
2022/09/14 04:41:27;;;;;;;;;;;;;;;17.44;88.89;100113.69;5088714;28;19924;-79
2022/09/14 04:43:53;;;;;;;;;;;;;;;17.45;88.64;100104.84;5073041;28;19963;-79
2022/09/14 04:46:19;;;;;;;;;;;;;;;17.44;88.68;100111.88;5088280;28;19966;-79
2022/09/14 04:48:45;;;;;;;;;;;;;;;17.45;88.82;100103.06;5090825;28;20090;-79
2022/09/14 04:51:12;;;;;;;;;;;;;;;17.44;88.94;100108.44;5092263;28;20018;-79
2022/09/14 04:53:38;;;;;;;;;;;;;;;17.45;88.89;100099.59;5091440;28;19924;-79
2022/09/14 04:56:08;;;;;;;;;;;;;;;17.43;88.75;100104.13;5095436;28;19973;-79
2022/09/14 04:58:33;;;;;;;;;;;;;;;17.43;88.96;100098.84;5088710;28;19921;-79
2022/09/14 05:01:03;;;;;;;;;;;;;;;17.38;88.94;100104.38;5069485;28;19935;-79
2022/09/14 05:03:29;;;;;;;;;;;;;;;17.38;88.96;100098.31;5071721;28;20343;-79
2022/09/14 05:05:54;;;;;;;;;;;;;;;17.34;88.78;100091.53;5090318;28;19924;-79
2022/09/14 05:08:20;;;;;;;;;;;;;;;17.32;89.06;100083.72;5086448;28;20287;-79
2022/09/14 05:10:45;;;;;;;;;;;;;;;17.37;88.69;100088.72;5067994;28;19931;-78
2022/09/14 05:13:10;;;;;;;;;;;;;;;17.39;88.85;100084.22;5092038;28;19916;-78
2022/09/14 05:15:35;;;;;;;;;;;;;;;17.37;88.82;100083.47;5093022;28;20645;-79
2022/09/14 05:18:02;;;;;;;;;;;;;;;17.34;88.91;100083.66;5091750;28;20402;-78
2022/09/14 05:20:27;;;;;;;;;;;;;;;17.33;88.83;100085.44;5090256;28;20339;-78
2022/09/14 05:22:52;;;;;;;;;;;;;;;17.35;88.98;100077.47;5071347;28;19916;-78
2022/09/14 05:25:18;;;;;;;;;;;;;;;17.36;89.10;100077.38;5087692;28;19963;-79
2022/09/14 05:27:43;;;;;;;;;;;;;;;17.34;89.44;100078.41;5091831;28;19974;-79
2022/09/14 05:30:08;;;;;;;;;;;;;;;17.32;89.16;100075.03;5091730;28;19928;-79
2022/09/14 05:32:34;;;;;;;;;;;;;;;17.33;88.90;100080.19;5094053;28;19916;-79
2022/09/14 05:34:59;;;;;;;;;;;;;;;17.37;88.86;100083.47;5088852;28;19971;-79
2022/09/14 05:37:24;;;;;;;;;;;;;;;17.35;88.81;100074.84;5088252;28;19962;-80
2022/09/14 05:39:50;;;;;;;;;;;;;;;17.36;88.86;100079.16;5085670;28;20011;-79
2022/09/14 05:42:15;;;;;;;;;;;;;;;17.39;88.54;100079.81;5083238;28;19921;-79
2022/09/14 05:44:40;;;;;;;;;;;;;;;17.37;88.70;100079.06;5087084;28;19927;-79
2022/09/14 05:47:06;;;;;;;;;;;;;;;17.38;88.90;100085.19;5086542;28;19920;-79
2022/09/14 05:49:31;;;;;;;;;;;;;;;17.38;88.81;100086.00;5090158;28;19924;-79
2022/09/14 05:51:56;;;;;;;;;;;;;;;17.41;88.73;100087.63;5090860;28;19927;-79
2022/09/14 05:54:21;;;;;;;;;;;;;;;17.41;88.74;100080.56;5090836;28;19920;-79
2022/09/14 05:56:47;;;;;;;;;;;;;;;17.38;88.98;100078.13;5068916;28;19927;-79
2022/09/14 05:59:12;;;;;;;;;;;;;;;17.39;88.99;100071.09;5069806;28;19943;-79
2022/09/14 06:01:38;;;;;;;;;;;;;;;17.38;88.98;100075.50;5087917;28;20571;-80
2022/09/14 06:04:03;;;;;;;;;;;;;;;17.38;88.87;100075.50;5086702;28;20304;-79
2022/09/14 06:06:29;;;;;;;;;;;;;;;17.41;89.00;100074.50;5083625;28;19927;-79
2022/09/14 06:08:55;;;;;;;;;;;;;;;17.37;88.97;100075.59;5088719;28;19993;-79
2022/09/14 06:11:22;;;;;;;;;;;;;;;17.39;88.97;100077.19;5084010;28;19924;-79
2022/09/14 06:13:48;;;;;;;;;;;;;;;17.39;89.12;100076.34;5088316;28;19928;-78
2022/09/14 06:16:14;;;;;;;;;;;;;;;17.42;89.06;100068.28;5086682;28;20038;-79
2022/09/14 06:18:40;;;;;;;;;;;;;;;17.40;89.04;100083.28;5085463;28;19928;-79
2022/09/14 06:21:06;;;;;;;;;;;;;;;17.38;89.11;100077.28;5090598;28;19926;-79
2022/09/14 06:23:31;;;;;;;;;;;;;;;17.37;89.26;100081.69;5086892;28;19920;-79
2022/09/14 06:25:58;;;;;;;;;;;;;;;17.39;89.22;100084.22;5087700;28;19920;-79
2022/09/14 06:28:24;;;;;;;;;;;;;;;17.38;89.06;100086.00;5084078;28;19920;-79
2022/09/14 06:30:50;;;;;;;;;;;;;;;17.36;88.96;100085.25;5087572;28;19924;-79
2022/09/14 06:33:16;;;;;;;;;;;;;;;17.41;88.91;100087.63;5090824;28;19927;-79
2022/09/14 06:35:42;;;;;;;;;;;;;;;17.39;88.77;100086.84;5088081;28;20376;-79
2022/09/14 06:38:07;;;;;;;;;;;;;;;17.38;89.24;100087.78;5086061;28;20011;-79
2022/09/14 06:40:33;;;;;;;;;;;;;;;17.34;89.34;100079.25;5086483;28;19920;-79
2022/09/14 06:43:01;;;;;;;;;;;;;;;17.36;89.15;100082.63;5068259;28;19963;-79
2022/09/14 06:45:27;;;;;;;;;;;;;;;17.40;89.16;100093.78;5088983;28;19916;-79
2022/09/14 06:47:53;;;;;;;;;;;;;;;17.43;89.18;100091.84;5087764;28;19926;-79
2022/09/14 06:50:18;;;;;;;;;;;;;;;17.40;89.33;100093.78;5083686;28;20307;-79
2022/09/14 06:52:43;;;;;;;;;;;;;;;17.44;89.04;100095.31;5088033;28;19920;-79
2022/09/14 06:55:08;;;;;;;;;;;;;;;17.38;89.63;100093.88;5093013;28;19916;-79
2022/09/14 06:57:36;;;;;;;;;;;;;;;17.35;89.49;100091.41;5089202;28;19924;-79
2022/09/14 07:00:02;;;;;;;;;;;;;;;17.38;89.66;100090.41;5082817;28;19978;-79
2022/09/14 07:02:28;;;;;;;;;;;;;;;17.42;89.73;100099.78;5087266;28;20375;-79
2022/09/14 07:04:53;;;;;;;;;;;;;;;17.40;89.64;100093.78;5086264;28;19920;-79
2022/09/14 07:07:18;;;;;;;;;;;;;;;17.41;89.52;100088.44;5084922;28;20140;-79
2022/09/14 07:09:43;;;;;;;;;;;;;;;17.41;89.43;100092.88;5081156;28;19933;-79
2022/09/14 07:12:10;;;;;;;;;;;;;;;17.41;89.62;100085.81;5083611;28;20034;-79
2022/09/14 07:14:35;;;;;;;;;;;;;;;17.41;89.45;100090.25;5088830;28;19920;-79
2022/09/14 07:17:01;;;;;;;;;;;;;;;17.42;89.63;100081.41;5087933;28;19928;-79
2022/09/14 07:19:26;;;;;;;;;;;;;;;17.43;89.64;100083.97;5088976;28;20296;-79
2022/09/14 07:21:53;;;;;;;;;;;;;;;17.41;89.63;100080.56;5085928;28;19920;-79
2022/09/14 07:24:18;;;;;;;;;;;;;;;17.43;89.56;100072.59;5087358;28;19920;-79
2022/09/14 07:26:44;;;;;;;;;;;;;;;17.42;89.72;100068.28;5090436;28;20349;-79
2022/09/14 07:29:13;;;;;;;;;;;;;;;17.43;89.77;100068.19;5071214;28;19916;-79
2022/09/14 07:31:43;;;;;;;;;;;;;;;17.41;89.82;100064.81;5089126;28;20427;-79
2022/09/14 07:34:10;;;;;;;;;;;;;;;17.45;89.36;100058.44;5077308;28;19920;-79
2022/09/14 07:36:36;;;;;;;;;;;;;;;17.45;89.29;100050.56;5095355;28;20015;-79
2022/09/14 07:39:03;;;;;;;;;;;;;;;17.46;89.46;100056.66;5089056;28;20003;-79
2022/09/14 07:41:29;;;;;;;;;;;;;;;17.46;89.35;100057.53;5087442;28;19927;-79
2022/09/14 07:43:56;;;;;;;;;;;;;;;17.44;89.66;100059.38;5089736;28;19920;-79
2022/09/14 07:46:22;;;;;;;;;;;;;;;17.48;89.75;100054.78;5085184;28;19924;-79
2022/09/14 07:48:47;;;;;;;;;;;;;;;17.50;89.67;100055.56;5096005;28;19920;-79
2022/09/14 07:51:13;;;;;;;;;;;;;;;17.49;89.73;100054.69;5093436;28;20281;-79
2022/09/14 07:53:41;;;;;;;;;;;;;;;17.50;89.60;100056.38;5090048;28;20568;-79
2022/09/14 07:56:07;;;;;;;;;;;;;;;17.53;89.88;100052.75;5090856;28;20438;-79
2022/09/14 07:58:32;;;;;;;;;;;;;;;17.52;89.69;100051.03;5072412;28;19924;-79
2022/09/14 08:01:18;;;;;;;;;;;;;;;17.56;89.68;100056.00;5083718;28;20403;-79
2022/09/14 08:03:44;;;;;;;;;;;;;;;17.56;89.72;100056.00;5087999;28;20014;-79
2022/09/14 08:06:11;;;;;;;;;;;;;;;17.60;89.84;100048.81;5070534;28;19924;-79
2022/09/14 08:08:38;;;;;;;;;;;;;;;17.59;89.73;100052.38;5090557;28;20628;-79
2022/09/14 08:11:13;;;;;;;;;;;;;;;17.62;89.50;100039.06;5086604;28;20423;-78
2022/09/14 08:13:41;;;;;;;;;;;;;;;17.65;89.70;100046.75;5094227;28;19916;-79
2022/09/14 08:16:06;;;;;;;;;;;;;;;17.65;89.76;100049.38;5082853;28;19926;-79
2022/09/14 08:18:34;;;;;;;;;;;;;;;17.67;89.75;100049.28;5076801;28;19923;-79
2022/09/14 08:21:09;;;;;;;;;;;;;;;17.65;89.55;100059.06;5089854;28;19928;-79
2022/09/14 08:23:35;;;;;;;;;;;;;;;17.62;89.35;100065.31;5091668;28;19920;-79
2022/09/14 08:26:01;;;;;;;;;;;;;;;17.62;88.99;100059.25;5070967;28;20005;-79
2022/09/14 08:28:26;;;;;;;;;;;;;;;17.64;88.90;100055.59;5092819;28;19971;-79
2022/09/14 08:30:51;;;;;;;;;;;;;;;17.65;89.12;100057.25;5092128;28;19978;-79
2022/09/14 08:33:17;;;;;;;;;;;;;;;17.65;89.29;100062.50;5078980;28;19921;-79
2022/09/14 08:35:43;;;;;;;;;;;;;;;17.63;89.07;100059.13;5091472;28;19927;-79
2022/09/14 08:38:08;;;;;;;;;;;;;;;17.59;88.76;100065.50;5099409;28;19920;-79
2022/09/14 08:40:33;;;;;;;;;;;;;;;17.59;89.19;100070.75;5091860;28;19916;-79
2022/09/14 08:43:01;;;;;;;;;;;;;;;17.63;89.28;100074.03;5071217;28;20047;-79
2022/09/14 08:45:27;;;;;;;;;;;;;;;17.64;89.18;100078.38;5084198;28;20373;-79
2022/09/14 08:47:53;;;;;;;;;;;;;;;17.58;87.94;100076.94;5087105;28;19927;-79
2022/09/14 08:50:20;;;;;;;;;;;;;;;17.53;87.46;100073.75;5091821;28;19924;-79
2022/09/14 08:52:46;;;;;;;;;;;;;;;17.48;87.18;100076.63;5098556;28;19970;-79
2022/09/14 08:55:30;;;;;;;;;;;;;;;17.45;87.08;100086.47;5091964;28;19912;-79
2022/09/14 08:58:24;;;;;;;;;;;;;;;17.44;86.92;100087.44;5089507;28;19927;-79
2022/09/14 09:00:56;;;;;;;;;;;;;;;17.38;87.42;100079.91;5077804;28;19924;-79
2022/09/14 09:03:38;;;;;;;;;;;;;;;17.42;87.61;100091.91;5090536;28;19920;-79
2022/09/14 09:06:14;;;;;;;;;;;;;;;17.43;87.75;100085.72;5085545;28;19920;-79
2022/09/14 09:08:49;;;;;;;;;;;;;;;17.47;87.38;100084.63;5087621;28;20379;-79
2022/09/14 09:11:17;;;;;;;;;;;;;;;17.46;87.91;100082.94;5095198;28;19924;-78
2022/09/14 09:13:43;;;;;;;;;;;;;;;17.32;87.95;100080.28;5096612;28;19913;-78
2022/09/14 09:16:10;;;;;;;;;;;;;;;17.33;87.28;100080.19;5092670;28;19912;-79
2022/09/14 09:18:46;;;;;;;;;;;;;;;17.41;87.13;100085.81;5070427;28;19924;-79
2022/09/14 09:21:11;;;;;;;;;;;;;;;17.47;86.50;100079.38;5087362;28;19927;-79
2022/09/14 09:23:37;;;;;;;;;;;;;;;17.44;86.51;100085.63;5090492;28;19916;-79
2022/09/14 09:26:09;;;;;;;;;;;;;;;17.41;85.97;100095.50;5064436;28;20304;-78
2022/09/14 09:28:38;;;;;;;;;;;;;;;17.40;86.32;100092.00;5089881;28;20381;-79
2022/09/14 09:31:05;;;;;;;;;;;;;;;17.40;85.73;100085.91;5087340;28;19924;-79
2022/09/14 09:33:31;;;;;;;;;;;;;;;17.43;85.34;100081.34;5093012;28;19927;-79
2022/09/14 09:35:56;;;;;;;;;;;;;;;17.43;86.01;100077.84;5087185;28;19928;-79
2022/09/14 09:38:26;;;;;;;;;;;;;;;17.42;86.26;100077.00;5090364;28;19967;-79
2022/09/14 09:40:53;;;;;;;;;;;;;;;17.48;86.05;100078.41;5085728;28;20416;-78
2022/09/14 09:43:19;;;;;;;;;;;;;;;17.47;86.65;100085.44;5089504;28;19916;-79
2022/09/14 09:46:01;;;;;;;;;;;;;;;17.41;87.25;100085.00;5081266;28;19921;-79
2022/09/14 09:48:32;;;;;;;;;;;;;;;17.45;87.58;100083.84;5084457;28;19924;-79
2022/09/14 09:51:00;;;;;;;;;;;;;;;17.39;86.37;100077.19;5086407;28;19986;-79
2022/09/14 09:53:26;;;;;;;;;;;;;;;17.36;86.53;100074.75;5073808;28;19920;-79
2022/09/14 09:55:51;;;;;;;;;;;;;;;17.36;86.09;100061.63;5083799;28;19921;-79
2022/09/14 09:58:20;;;;;;;;;;;;;;;17.33;85.99;100059.19;5088239;28;19916;-79
2022/09/14 10:00:59;;;;;;;;;;;;;;;17.35;86.03;100045.97;5063119;28;20421;-79
2022/09/14 10:03:27;;;;;;;;;;;;;;;17.37;85.88;100041.47;5088487;28;20030;-79
2022/09/14 10:06:13;;;;;;;;;;;;;;;17.39;85.88;100050.09;5091498;28;19924;-79
2022/09/14 10:08:42;;;;;;;;;;;;;;;17.34;85.83;100053.00;5084855;28;19974;-79
2022/09/14 10:11:26;;;;;;;;;;;;;;;17.34;86.47;100039.88;5085040;28;20434;-79
2022/09/14 10:13:52;;;;;;;;;;;;;;;17.35;86.32;100035.47;5088457;28;19920;-79
2022/09/14 10:16:18;;;;;;;;;;;;;;;17.44;86.50;100038.38;5084314;28;20312;-79
2022/09/14 10:18:45;;;;;;;;;;;;;;;17.33;86.28;100040.81;5089720;28;20460;-79
2022/09/14 10:21:11;;;;;;;;;;;;;;;17.39;86.41;100042.22;5091439;28;19921;-79
2022/09/14 10:23:38;;;;;;;;;;;;;;;17.36;86.35;100042.38;5086502;28;19962;-79
2022/09/14 10:26:15;;;;;;;;;;;;;;;17.33;86.68;100043.44;5069131;28;20367;-78
2022/09/14 10:28:45;;;;;;;;;;;;;;;17.41;85.95;100056.09;5069314;28;19973;-79
2022/09/14 10:31:10;;;;;;;;;;;;;;;17.29;86.58;100055.06;5085094;28;20021;-79
2022/09/14 10:33:36;;;;;;;;;;;;;;;17.39;86.91;100050.94;5088668;28;20340;-79
2022/09/14 10:36:08;;;;;;;;;;;;;;;17.40;87.07;100044.75;5099237;28;19951;-79
2022/09/14 10:38:38;;;;;;;;;;;;;;;17.41;86.58;100053.47;5093229;28;20074;-78
2022/09/14 10:41:07;;;;;;;;;;;;;;;17.33;86.72;100050.44;5082495;28;19924;-79
2022/09/14 10:43:50;;;;;;;;;;;;;;;17.28;86.99;100048.13;5070270;28;19916;-79
2022/09/14 10:46:19;;;;;;;;;;;;;;;17.39;86.38;100050.09;5086760;28;20377;-79
2022/09/14 10:48:54;;;;;;;;;;;;;;;17.46;86.39;100049.63;5083612;28;19927;-79
2022/09/14 10:51:24;;;;;;;;;;;;;;;17.42;86.47;100050.75;5086531;28;19985;-79
2022/09/14 10:54:00;;;;;;;;;;;;;;;17.46;86.47;100064.53;5069543;28;20014;-79
2022/09/14 10:56:31;;;;;;;;;;;;;;;17.41;86.21;100056.09;5088061;28;20395;-79
2022/09/14 10:59:06;;;;;;;;;;;;;;;17.38;85.68;100056.28;5086722;28;19912;-78
2022/09/14 11:02:00;;;;;;;;;;;;;;;17.32;86.36;100054.03;5098192;28;20288;-78
2022/09/14 11:04:44;;;;;;;;;;;;;;;17.41;86.14;100053.47;5079312;28;20021;-78
2022/09/14 11:07:11;;;;;;;;;;;;;;;17.23;86.22;100065.09;5082884;28;19926;-79
2022/09/14 11:09:39;;;;;;;;;;;;;;;17.27;86.58;100058.69;5086869;28;19928;-79
2022/09/14 11:12:17;;;;;;;;;;;;;;;17.14;87.88;100055.97;5085201;28;19923;-79
2022/09/14 11:14:51;;;;;;;;;;;;;;;17.16;87.88;100053.25;5085050;28;19947;-79
2022/09/14 11:17:30;;;;;;;;;;;;;;;17.12;87.37;100042.06;5083336;28;20412;-79
2022/09/14 11:20:02;;;;;;;;;;;;;;;17.12;87.59;100028.97;5088951;28;19928;-79
2022/09/14 11:22:49;;;;;;;;;;;;;;;17.22;88.62;100018.75;5086627;28;19919;-79
2022/09/14 11:25:20;;;;;;;;;;;;;;;17.17;88.32;100026.94;5090220;28;19924;-79
2022/09/14 11:27:51;;;;;;;;;;;;;;;17.17;88.51;100028.69;5083577;28;19973;-79
2022/09/14 11:30:21;;;;;;;;;;;;;;;17.19;88.81;100021.56;5082525;28;19932;-79
2022/09/14 11:32:53;;;;;;;;;;;;;;;17.10;87.30;100030.84;5084060;28;20505;-79
2022/09/14 11:35:27;;;;;;;;;;;;;;;17.13;88.33;100020.16;5085778;28;20015;-79
2022/09/14 11:37:53;;;;;;;;;;;;;;;17.15;88.36;100025.31;5087873;28;19916;-79
2022/09/14 11:40:21;;;;;;;;;;;;;;;17.28;88.70;100021.88;5092166;28;19958;-79
2022/09/14 11:42:46;;;;;;;;;;;;;;;17.28;88.68;100023.66;5087091;28;19928;-79
2022/09/14 11:45:16;;;;;;;;;;;;;;;17.26;88.28;100022.91;5095922;28;19970;-79
2022/09/14 11:47:45;;;;;;;;;;;;;;;17.29;88.27;100007.81;5080412;28;19916;-79
2022/09/14 11:50:17;;;;;;;;;;;;;;;17.27;87.85;100014.06;5088348;28;19924;-79
2022/09/14 11:52:42;;;;;;;;;;;;;;;17.25;87.30;100002.81;5086798;28;20328;-78
2022/09/14 11:55:09;;;;;;;;;;;;;;;17.26;88.42;100000.13;5088235;28;19916;-79
2022/09/14 11:57:35;;;;;;;;;;;;;;;17.32;88.55;99999.72;5082010;28;19928;-79
2022/09/14 12:00:06;;;;;;;;;;;;;;;17.37;88.47;99999.47;5086693;28;19924;-79
2022/09/14 12:02:31;;;;;;;;;;;;;;;17.37;87.12;100000.31;5083086;28;20384;-79
2022/09/14 12:07:56;;;;;;;;;;;;;;;17.38;87.71;99995.91;5089613;28;19962;-79
2022/09/14 12:10:22;;;;;;;;;;;;;;;17.37;88.34;99997.69;5087096;28;19968;-79
2022/09/14 12:13:05;;;;;;;;;;;;;;;17.42;88.13;99992.13;5086476;28;20392;-79
2022/09/14 12:15:32;;;;;;;;;;;;;;;17.50;87.89;99989.91;5088124;28;20434;-79
2022/09/14 12:18:06;;;;;;;;;;;;;;;17.45;88.70;99986.69;5089631;28;19921;-79
2022/09/14 12:20:31;;;;;;;;;;;;;;;17.50;88.50;99974.16;5084928;28;20395;-79
2022/09/14 12:23:23;;;;;;;;;;;;;;;17.53;89.25;99979.22;5089728;28;19912;-79
2022/09/14 12:25:54;;;;;;;;;;;;;;;17.46;88.83;99980.53;5070504;28;19965;-78
2022/09/14 12:28:35;;;;;;;;;;;;;;;17.42;87.61;99986.88;5093887;28;19919;-79
2022/09/14 12:31:03;;;;;;;;;;;;;;;17.48;87.52;99989.13;5088746;28;19978;-78
2022/09/14 12:33:34;;;;;;;;;;;;;;;17.48;87.89;99994.38;5091643;28;19962;-79
2022/09/14 12:35:59;;;;;;;;;;;;;;;17.47;87.72;99996.16;5095018;28;19920;-78
2022/09/14 12:38:28;;;;;;;;;;;;;;;17.45;87.91;99998.06;5086971;28;20320;-78
2022/09/14 12:41:13;;;;;;;;;;;;;;;17.47;86.46;100000.59;5089070;28;19916;-78
2022/09/14 12:43:38;;;;;;;;;;;;;;;17.42;87.37;99989.50;5015386;28;19915;-78
2022/09/14 12:46:07;;;;;;;;;;;;;;;17.40;87.58;99984.38;5092077;28;19923;-78
2022/09/14 12:48:47;;;;;;;;;;;;;;;17.44;87.94;99977.16;5091265;28;19920;-78